Aviation Digital Data Service (ADDS)

Output produced by METARs form (0718 UTC 23 September 2017)
found at http://www.aviationweather.gov/adds/metars/
 
SEGU 230700Z 22010KT 9999 FEW020 BKN100 22/19 Q1010 NOSIG RMK A2983
SEGU 230420Z 2306/2406 23010KT BKN020 BKN100 
     FM231600 16006KT 9999 SCT030 SCT100 
     FM240000 22012KT 9999 CAVOK TX31/2319Z TN22/2310Z
       
SEMT 230700Z 20005KT 9999 BKN023 22/20 Q1011 RMK A2987
SEMT 230420Z 2306/2406 20003KT 9999 OVC023 
     FM231200 21004KT 9999 BKN020 
     FM231800 27010KT 9999 SCT020 
     FM240000 22005KT 9999 BKN023 TX28/2320Z TN22/2310Z